createdAt,value
2024-02-02T00:00:23.328Z,0.00
2024-02-02T00:01:23.305Z,0.00
2024-02-02T00:02:23.230Z,0.00
2024-02-02T00:03:23.238Z,0.00
2024-02-02T00:04:23.156Z,0.00
2024-02-02T00:05:23.120Z,0.00
2024-02-02T00:06:23.153Z,0.00
2024-02-02T00:07:23.102Z,0.00
2024-02-02T00:08:23.025Z,0.00
2024-02-02T00:09:23.067Z,0.00
2024-02-02T00:10:23.015Z,0.00
2024-02-02T00:11:23.912Z,0.00
2024-02-02T00:12:22.996Z,0.00
2024-02-02T00:13:22.903Z,0.00
2024-02-02T00:14:23.410Z,0.00
2024-02-02T00:15:22.852Z,0.00
2024-02-02T00:16:22.814Z,0.00
2024-02-02T00:17:22.792Z,0.00
2024-02-02T00:18:22.937Z,0.00
2024-02-02T00:19:22.935Z,0.00
2024-02-02T00:20:22.807Z,0.00
2024-02-02T00:21:22.904Z,0.00
2024-02-02T00:22:22.652Z,0.00
2024-02-02T00:23:22.638Z,0.00
2024-02-02T00:24:22.645Z,0.00
2024-02-02T00:25:22.571Z,0.00
2024-02-02T00:26:22.544Z,0.00
2024-02-02T00:27:22.556Z,0.00
2024-02-02T00:28:22.493Z,0.00
2024-02-02T00:29:22.479Z,0.00
2024-02-02T00:30:22.455Z,0.00
2024-02-02T00:31:22.431Z,0.00
2024-02-02T00:32:22.393Z,0.00
2024-02-02T00:33:22.564Z,0.00
2024-02-02T00:34:22.543Z,0.00
2024-02-02T00:35:22.305Z,0.00
2024-02-02T00:36:22.376Z,0.00
2024-02-02T00:37:22.262Z,0.00
2024-02-02T00:38:22.247Z,0.00
2024-02-02T00:39:22.261Z,0.00
2024-02-02T00:40:22.202Z,0.00
2024-02-02T00:41:22.170Z,0.00
2024-02-02T00:42:22.268Z,0.00
2024-02-02T00:43:22.111Z,0.00
2024-02-02T00:44:22.090Z,0.00
2024-02-02T00:45:22.127Z,0.00
2024-02-02T00:46:22.030Z,0.00
2024-02-02T00:47:22.034Z,0.00
2024-02-02T00:48:22.180Z,0.00
2024-02-02T00:49:22.156Z,0.00
2024-02-02T00:50:21.989Z,0.00
2024-02-02T00:51:21.988Z,0.00
2024-02-02T00:52:21.885Z,0.00
2024-02-02T00:53:21.879Z,0.00
2024-02-02T00:54:22.165Z,0.00
2024-02-02T00:55:21.797Z,0.00
2024-02-02T00:56:21.795Z,0.00
2024-02-02T00:57:21.843Z,0.00
2024-02-02T00:58:21.723Z,0.00
2024-02-02T00:59:21.704Z,0.00
2024-02-02T01:00:21.730Z,0.00
2024-02-02T01:01:21.689Z,0.00
2024-02-02T01:02:21.607Z,0.00
2024-02-02T01:03:21.657Z,0.00
2024-02-02T01:04:21.649Z,0.00
2024-02-02T01:05:21.533Z,0.00
2024-02-02T01:06:21.629Z,0.00
2024-02-02T01:07:21.539Z,0.00
2024-02-02T01:08:21.455Z,0.00
2024-02-02T01:09:21.484Z,0.00
2024-02-02T01:10:21.457Z,0.00
2024-02-02T01:11:21.374Z,0.00
2024-02-02T01:12:21.377Z,0.00
2024-02-02T01:13:21.334Z,0.00
2024-02-02T01:14:21.308Z,0.00
2024-02-02T01:15:21.270Z,0.00
2024-02-02T01:16:21.227Z,0.00
2024-02-02T01:17:21.210Z,0.00
2024-02-02T01:18:21.378Z,0.00
2024-02-02T01:19:21.316Z,0.00
2024-02-02T01:20:21.138Z,0.00
2024-02-02T01:21:21.151Z,0.00
2024-02-02T01:22:21.069Z,0.00
2024-02-02T01:23:21.051Z,0.00
2024-02-02T01:24:21.043Z,0.00
2024-02-02T01:25:21.011Z,0.00
2024-02-02T01:26:20.967Z,0.00
2024-02-02T01:27:20.963Z,0.00
2024-02-02T01:28:20.927Z,0.00
2024-02-02T01:29:20.897Z,0.00
2024-02-02T01:30:20.948Z,0.00
2024-02-02T01:31:20.845Z,0.00
2024-02-02T01:32:20.835Z,0.00
2024-02-02T01:33:21.888Z,0.00
2024-02-02T01:34:20.976Z,0.00
2024-02-02T01:35:20.734Z,0.00
2024-02-02T01:36:20.752Z,0.00
2024-02-02T01:37:20.711Z,0.00
2024-02-02T01:38:20.675Z,0.00
2024-02-02T01:39:20.673Z,0.00
2024-02-02T01:40:20.595Z,0.00
2024-02-02T01:41:20.570Z,0.00
2024-02-02T01:42:20.600Z,0.00
2024-02-02T01:43:20.525Z,0.00
2024-02-02T01:44:20.509Z,0.00
2024-02-02T01:45:20.508Z,0.00
2024-02-02T01:46:20.475Z,0.00
2024-02-02T01:47:20.499Z,0.00
2024-02-02T01:48:20.549Z,0.00
2024-02-02T01:49:20.489Z,0.00
2024-02-02T01:50:20.357Z,0.00
2024-02-02T01:51:20.433Z,0.00
2024-02-02T01:52:20.284Z,0.00
2024-02-02T01:53:20.267Z,0.00
2024-02-02T01:54:20.276Z,0.00
2024-02-02T01:55:20.206Z,0.00
2024-02-02T01:56:20.198Z,0.00
2024-02-02T01:57:20.256Z,0.00
2024-02-02T01:58:20.134Z,0.00
2024-02-02T01:59:20.119Z,0.00
2024-02-02T02:00:20.129Z,0.00
2024-02-02T02:01:20.081Z,0.00
2024-02-02T02:02:20.066Z,0.00
2024-02-02T02:03:20.103Z,0.00
2024-02-02T02:04:20.043Z,0.00
2024-02-02T02:05:20.039Z,0.00
2024-02-02T02:06:19.942Z,0.00
2024-02-02T02:07:19.916Z,0.00
2024-02-02T02:08:19.920Z,0.00
2024-02-02T02:09:19.865Z,0.00
2024-02-02T02:10:19.834Z,0.00
2024-02-02T02:11:19.806Z,0.00
2024-02-02T02:12:19.853Z,0.00
2024-02-02T02:13:19.752Z,0.00
2024-02-02T02:14:19.731Z,0.00
2024-02-02T02:15:19.752Z,0.00
2024-02-02T02:16:19.696Z,0.00
2024-02-02T02:17:19.652Z,0.00
2024-02-02T02:18:19.752Z,0.00
2024-02-02T02:19:19.684Z,0.00
2024-02-02T02:20:19.644Z,0.00
2024-02-02T02:21:19.559Z,0.00
2024-02-02T02:22:19.539Z,0.00
2024-02-02T02:23:19.495Z,0.00
2024-02-02T02:24:19.501Z,0.00
2024-02-02T02:25:19.443Z,0.00
2024-02-02T02:26:19.429Z,0.00
2024-02-02T02:27:19.441Z,0.00
2024-02-02T02:28:19.377Z,0.00
2024-02-02T02:29:19.358Z,0.00
2024-02-02T02:30:19.401Z,0.00
2024-02-02T02:31:19.291Z,0.00
2024-02-02T02:32:19.355Z,0.00
2024-02-02T02:33:19.353Z,0.00
2024-02-02T02:34:19.380Z,0.00
2024-02-02T02:35:19.192Z,0.00
2024-02-02T02:36:19.198Z,0.00
2024-02-02T02:37:19.142Z,0.00
2024-02-02T02:38:19.130Z,0.00
2024-02-02T02:39:19.117Z,0.00
2024-02-02T02:40:19.098Z,0.00
2024-02-02T02:41:19.039Z,0.00
2024-02-02T02:42:19.047Z,0.00
2024-02-02T02:43:18.997Z,0.00
2024-02-02T02:44:18.978Z,0.00
2024-02-02T02:45:19.044Z,0.00
2024-02-02T02:46:18.916Z,0.00
2024-02-02T02:47:19.740Z,0.00
2024-02-02T02:48:19.124Z,0.00
2024-02-02T02:49:19.010Z,0.00
2024-02-02T02:50:19.409Z,0.00
2024-02-02T02:51:18.807Z,0.00
2024-02-02T02:52:18.757Z,0.00
2024-02-02T02:53:18.728Z,0.00
2024-02-02T02:54:18.724Z,0.00
2024-02-02T02:55:18.698Z,0.00
2024-02-02T02:56:18.661Z,0.00
2024-02-02T02:57:18.729Z,0.00
2024-02-02T02:58:18.637Z,0.00
2024-02-02T02:59:18.590Z,0.00
2024-02-02T03:00:18.601Z,0.00
2024-02-02T03:01:18.576Z,0.00
2024-02-02T03:02:18.504Z,0.00
2024-02-02T03:03:18.553Z,0.00
2024-02-02T03:04:18.546Z,0.00
2024-02-02T03:05:18.439Z,0.00
2024-02-02T03:06:18.532Z,0.00
2024-02-02T03:07:18.504Z,0.00
2024-02-02T03:08:18.360Z,0.00
2024-02-02T03:09:18.347Z,0.00
2024-02-02T03:10:18.323Z,0.00
2024-02-02T03:11:18.285Z,0.00
2024-02-02T03:12:18.307Z,0.00
2024-02-02T03:13:18.274Z,0.00
2024-02-02T03:14:18.225Z,0.00
2024-02-02T03:15:18.243Z,0.00
2024-02-02T03:16:18.154Z,0.00
2024-02-02T03:17:18.125Z,0.00
2024-02-02T03:18:18.341Z,0.00
2024-02-02T03:19:18.194Z,0.00
2024-02-02T03:20:18.054Z,0.00
2024-02-02T03:21:18.108Z,0.00
2024-02-02T03:22:18.058Z,0.00
2024-02-02T03:23:17.975Z,0.00
2024-02-02T03:24:17.993Z,0.00
2024-02-02T03:25:17.933Z,0.00
2024-02-02T03:26:17.908Z,0.00
2024-02-02T03:27:17.937Z,0.00
2024-02-02T03:28:17.862Z,0.00
2024-02-02T03:29:19.995Z,0.00
2024-02-02T03:30:17.912Z,0.00
2024-02-02T03:31:17.771Z,0.00
2024-02-02T03:32:17.766Z,0.00
2024-02-02T03:33:17.830Z,0.00
2024-02-02T03:34:17.758Z,0.00
2024-02-02T03:35:17.666Z,0.00
2024-02-02T03:36:17.717Z,0.00
2024-02-02T03:37:17.625Z,0.00
2024-02-02T03:38:17.623Z,0.00
2024-02-02T03:39:17.585Z,0.00
2024-02-02T03:40:17.553Z,0.00
2024-02-02T03:41:17.533Z,0.00
2024-02-02T03:42:17.578Z,0.00
2024-02-02T03:43:17.465Z,0.00
2024-02-02T03:44:17.461Z,0.00
2024-02-02T03:45:17.470Z,0.00
2024-02-02T03:46:17.380Z,0.00
2024-02-02T03:47:17.367Z,0.00
2024-02-02T03:48:17.429Z,0.00
2024-02-02T03:49:17.347Z,0.00
2024-02-02T03:50:17.294Z,0.00
2024-02-02T03:51:17.321Z,0.00
2024-02-02T03:52:17.262Z,0.00
2024-02-02T03:53:17.247Z,0.00
2024-02-02T03:54:17.276Z,0.00
2024-02-02T03:55:17.166Z,0.00
2024-02-02T03:56:17.154Z,0.00
2024-02-02T03:57:17.129Z,0.00
2024-02-02T03:58:17.122Z,0.00
2024-02-02T03:59:17.075Z,0.00
2024-02-02T04:00:17.121Z,0.00
2024-02-02T04:01:17.047Z,0.00
2024-02-02T04:02:17.013Z,0.00
2024-02-02T04:03:17.049Z,0.00
2024-02-02T04:04:17.355Z,0.00
2024-02-02T04:05:17.055Z,0.00
2024-02-02T04:06:16.910Z,0.00
2024-02-02T04:07:16.872Z,0.00
2024-02-02T04:08:16.847Z,0.00
2024-02-02T04:09:16.890Z,0.00
2024-02-02T04:10:16.812Z,0.00
2024-02-02T04:11:16.767Z,0.00
2024-02-02T04:12:16.745Z,0.00
2024-02-02T04:13:16.713Z,0.00
2024-02-02T04:14:16.711Z,0.00
2024-02-02T04:15:16.697Z,0.00
2024-02-02T04:16:16.658Z,0.00
2024-02-02T04:17:16.624Z,0.00
2024-02-02T04:18:16.715Z,0.00
2024-02-02T04:19:16.644Z,0.00
2024-02-02T04:20:16.552Z,0.00
2024-02-02T04:21:16.589Z,0.00
2024-02-02T04:22:16.493Z,0.00
2024-02-02T04:23:16.472Z,0.00
2024-02-02T04:24:16.546Z,0.00
2024-02-02T04:25:16.420Z,0.00
2024-02-02T04:26:16.953Z,0.00
2024-02-02T04:27:16.409Z,0.00
2024-02-02T04:28:16.372Z,0.00
2024-02-02T04:29:16.312Z,0.00
2024-02-02T04:30:16.421Z,0.00
2024-02-02T04:31:16.269Z,0.00
2024-02-02T04:32:16.244Z,0.00
2024-02-02T04:33:16.359Z,0.00
2024-02-02T04:34:16.312Z,0.00
2024-02-02T04:35:16.195Z,0.00
2024-02-02T04:36:16.250Z,0.00
2024-02-02T04:37:16.119Z,0.00
2024-02-02T04:38:16.181Z,0.00
2024-02-02T04:39:16.094Z,0.00
2024-02-02T04:40:16.100Z,0.00
2024-02-02T04:41:16.035Z,0.00
2024-02-02T04:42:16.062Z,0.00
2024-02-02T04:43:15.979Z,0.00
2024-02-02T04:44:15.947Z,0.00
2024-02-02T04:45:15.957Z,0.00
2024-02-02T04:46:15.894Z,0.00
2024-02-02T04:47:15.860Z,0.00
2024-02-02T04:48:16.050Z,0.00
2024-02-02T04:49:16.122Z,0.00
2024-02-02T04:50:15.793Z,0.00
2024-02-02T04:51:15.840Z,0.00
2024-02-02T04:52:15.759Z,0.00
2024-02-02T04:53:15.735Z,0.00
2024-02-02T04:54:15.758Z,0.00
2024-02-02T04:55:15.665Z,0.00
2024-02-02T04:56:15.649Z,0.00
2024-02-02T04:57:15.697Z,0.00
2024-02-02T04:58:15.614Z,0.00
2024-02-02T04:59:15.674Z,0.00
2024-02-02T05:00:15.696Z,0.00
2024-02-02T05:01:15.509Z,0.00
2024-02-02T05:02:15.681Z,0.00
2024-02-02T05:03:15.472Z,0.00
2024-02-02T05:04:15.474Z,0.00
2024-02-02T05:05:15.459Z,0.00
2024-02-02T05:06:15.422Z,0.00
2024-02-02T05:07:15.374Z,0.00
2024-02-02T05:08:15.362Z,0.00
2024-02-02T05:09:15.361Z,0.00
2024-02-02T05:10:15.286Z,0.00
2024-02-02T05:11:15.264Z,0.00
2024-02-02T05:12:15.284Z,0.00
2024-02-02T05:13:15.227Z,0.00
2024-02-02T05:14:15.183Z,0.00
2024-02-02T05:15:15.229Z,0.00
2024-02-02T05:16:16.073Z,0.00
2024-02-02T05:17:15.123Z,0.00
2024-02-02T05:18:15.327Z,0.00
2024-02-02T05:19:15.154Z,0.00
2024-02-02T05:20:15.088Z,0.00
2024-02-02T05:21:15.156Z,0.00
2024-02-02T05:22:14.985Z,0.00
2024-02-02T05:23:14.961Z,0.00
2024-02-02T05:24:29.311Z,0.00
2024-02-02T05:25:15.630Z,0.00
2024-02-02T05:26:14.888Z,0.00
2024-02-02T05:27:14.920Z,0.00
2024-02-02T05:28:14.869Z,0.00
2024-02-02T05:29:14.833Z,0.00
2024-02-02T05:30:14.870Z,0.00
2024-02-02T05:31:14.763Z,0.00
2024-02-02T05:32:14.755Z,0.00
2024-02-02T05:33:14.801Z,0.00
2024-02-02T05:34:14.810Z,0.00
2024-02-02T05:35:14.654Z,0.00
2024-02-02T05:36:14.746Z,0.00
2024-02-02T05:37:14.627Z,0.00
2024-02-02T05:38:14.590Z,0.00
2024-02-02T05:39:14.602Z,0.00
2024-02-02T05:40:15.461Z,0.00
2024-02-02T05:41:14.532Z,0.00
2024-02-02T05:42:14.527Z,0.00
2024-02-02T05:43:14.453Z,0.00
2024-02-02T05:44:14.472Z,0.00
2024-02-02T05:45:14.520Z,0.00
2024-02-02T05:46:14.385Z,0.00
2024-02-02T05:47:14.368Z,0.00
2024-02-02T05:48:14.422Z,0.00
2024-02-02T05:49:14.446Z,0.00
2024-02-02T05:50:14.287Z,0.00
2024-02-02T05:51:14.295Z,0.00
2024-02-02T05:52:14.256Z,0.00
2024-02-02T05:53:14.208Z,0.00
2024-02-02T05:54:14.311Z,0.00
2024-02-02T05:55:14.175Z,0.00
2024-02-02T05:56:14.138Z,0.00
2024-02-02T05:57:14.135Z,0.00
2024-02-02T05:58:14.089Z,0.00
2024-02-02T05:59:14.057Z,0.00
2024-02-02T06:00:14.117Z,0.00
2024-02-02T06:01:14.065Z,0.00
2024-02-02T06:02:13.995Z,0.00
2024-02-02T06:03:14.011Z,0.00
2024-02-02T06:04:13.970Z,0.00
2024-02-02T06:05:13.918Z,0.00
2024-02-02T06:06:14.032Z,0.00
2024-02-02T06:07:14.084Z,0.00
2024-02-02T06:08:13.879Z,0.00
2024-02-02T06:09:13.878Z,0.00
2024-02-02T06:10:13.806Z,0.00
2024-02-02T06:11:13.797Z,0.00
2024-02-02T06:12:13.777Z,0.00
2024-02-02T06:13:13.736Z,0.00
2024-02-02T06:14:13.705Z,0.00
2024-02-02T06:15:13.709Z,0.00
2024-02-02T06:16:13.689Z,0.00
2024-02-02T06:17:13.664Z,0.00
2024-02-02T06:18:13.709Z,0.00
2024-02-02T06:19:13.641Z,0.00
2024-02-02T06:20:13.548Z,0.00
2024-02-02T06:21:13.557Z,0.00
2024-02-02T06:22:13.502Z,0.00
2024-02-02T06:23:13.495Z,0.00
2024-02-02T06:24:13.681Z,0.00
2024-02-02T06:25:13.421Z,0.00
2024-02-02T06:26:13.406Z,0.00
2024-02-02T06:27:13.473Z,0.00
2024-02-02T06:28:13.402Z,0.00
2024-02-02T06:29:13.358Z,0.00
2024-02-02T06:30:13.341Z,0.00
2024-02-02T06:31:13.373Z,0.00
2024-02-02T06:32:13.268Z,0.00
2024-02-02T06:33:13.460Z,0.00
2024-02-02T06:34:13.291Z,0.00
2024-02-02T06:35:13.261Z,0.00
2024-02-02T06:36:13.175Z,0.00
2024-02-02T06:37:13.156Z,0.00
2024-02-02T06:38:13.122Z,0.00
2024-02-02T06:39:13.200Z,0.00
2024-02-02T06:40:13.055Z,0.00
2024-02-02T06:41:13.045Z,0.00
2024-02-02T06:42:13.035Z,0.00
2024-02-02T06:43:13.051Z,0.00
2024-02-02T06:44:12.957Z,0.00
2024-02-02T06:45:12.970Z,0.00
2024-02-02T06:46:12.908Z,0.00
2024-02-02T06:47:12.878Z,0.00
2024-02-02T06:48:12.887Z,0.00
2024-02-02T06:49:13.050Z,0.00
2024-02-02T06:50:12.809Z,0.00
2024-02-02T06:51:12.851Z,0.00
2024-02-02T06:52:12.743Z,0.00
2024-02-02T06:53:12.736Z,0.00
2024-02-02T06:54:12.756Z,0.00
2024-02-02T06:55:12.680Z,0.00
2024-02-02T06:56:12.658Z,0.00
2024-02-02T06:57:12.691Z,0.00
2024-02-02T06:58:12.613Z,5.63
2024-02-02T06:59:12.584Z,5.63
2024-02-02T07:00:12.566Z,5.63
2024-02-02T07:01:12.580Z,5.63
2024-02-02T07:02:12.499Z,5.63
2024-02-02T07:03:12.691Z,5.63
2024-02-02T07:04:12.749Z,5.63
2024-02-02T07:05:12.435Z,5.63
2024-02-02T07:06:12.525Z,5.63
2024-02-02T07:07:12.436Z,5.63
2024-02-02T07:08:12.372Z,5.63
2024-02-02T07:09:12.462Z,5.63
2024-02-02T07:10:12.305Z,5.63
2024-02-02T07:11:12.280Z,5.63
2024-02-02T07:12:12.382Z,5.63
2024-02-02T07:13:12.239Z,5.63
2024-02-02T07:14:12.226Z,5.63
2024-02-02T07:15:12.202Z,5.63
2024-02-02T07:16:12.162Z,5.63
2024-02-02T07:17:14.470Z,5.63
2024-02-02T07:18:12.188Z,5.63
2024-02-02T07:19:12.198Z,5.63
2024-02-02T07:20:12.191Z,11.25
2024-02-02T07:21:12.128Z,11.25
2024-02-02T07:22:12.043Z,11.25
2024-02-02T07:23:11.999Z,5.63
2024-02-02T07:24:12.004Z,5.63
2024-02-02T07:25:11.954Z,5.63
2024-02-02T07:26:11.954Z,11.25
2024-02-02T07:27:11.941Z,16.88
2024-02-02T07:28:11.888Z,16.88
2024-02-02T07:29:11.843Z,22.50
2024-02-02T07:30:11.889Z,22.50
2024-02-02T07:31:11.798Z,22.50
2024-02-02T07:32:11.810Z,22.50
2024-02-02T07:33:11.834Z,22.50
2024-02-02T07:34:11.767Z,22.50
2024-02-02T07:35:11.719Z,22.50
2024-02-02T07:36:11.726Z,28.13
2024-02-02T07:37:11.648Z,28.13
2024-02-02T07:38:11.629Z,33.75
2024-02-02T07:39:11.623Z,33.75
2024-02-02T07:40:11.566Z,39.38
2024-02-02T07:41:11.564Z,39.38
2024-02-02T07:42:11.619Z,33.75
2024-02-02T07:43:11.532Z,33.75
2024-02-02T07:44:11.476Z,28.13
2024-02-02T07:45:11.463Z,28.13
2024-02-02T07:46:14.293Z,28.13
2024-02-02T07:47:11.432Z,28.13
2024-02-02T07:48:11.695Z,28.13
2024-02-02T07:49:11.401Z,28.13
2024-02-02T07:50:11.332Z,28.13
2024-02-02T07:51:11.346Z,28.13
2024-02-02T07:52:11.325Z,28.13
2024-02-02T07:53:11.252Z,33.75
2024-02-02T07:54:11.280Z,33.75
2024-02-02T07:55:11.215Z,33.75
2024-02-02T07:56:11.183Z,33.75
2024-02-02T07:57:11.218Z,45.00
2024-02-02T07:58:11.147Z,50.63
2024-02-02T07:59:11.993Z,56.25
2024-02-02T08:00:11.145Z,61.88
2024-02-02T08:01:12.166Z,61.88
2024-02-02T08:02:11.046Z,61.88
2024-02-02T08:03:13.713Z,61.88
2024-02-02T08:04:11.090Z,61.88
2024-02-02T08:05:10.987Z,67.50
2024-02-02T08:06:11.153Z,73.13
2024-02-02T08:07:11.002Z,78.75
2024-02-02T08:08:10.900Z,84.38
2024-02-02T08:09:10.913Z,90.00
2024-02-02T08:10:10.843Z,95.63
2024-02-02T08:11:10.832Z,101.25
2024-02-02T08:12:10.831Z,106.88
2024-02-02T08:13:12.576Z,106.88
2024-02-02T08:14:10.782Z,106.88
2024-02-02T08:15:10.776Z,106.88
2024-02-02T08:16:10.729Z,112.50
2024-02-02T08:17:10.682Z,118.13
2024-02-02T08:18:10.789Z,123.75
2024-02-02T08:19:10.716Z,118.13
2024-02-02T08:20:10.601Z,118.13
2024-02-02T08:21:10.718Z,118.13
2024-02-02T08:22:10.624Z,112.50
2024-02-02T08:23:10.543Z,118.13
2024-02-02T08:24:10.541Z,129.38
2024-02-02T08:25:10.474Z,129.38
2024-02-02T08:26:10.464Z,123.75
2024-02-02T08:27:10.461Z,118.13
2024-02-02T08:28:10.412Z,112.50
2024-02-02T08:29:10.424Z,106.88
2024-02-02T08:30:10.404Z,101.25
2024-02-02T08:31:10.340Z,101.25
2024-02-02T08:32:10.317Z,101.25
2024-02-02T08:33:10.443Z,95.63
2024-02-02T08:34:10.326Z,95.63
2024-02-02T08:35:10.244Z,95.63
2024-02-02T08:36:10.352Z,95.63
2024-02-02T08:37:10.192Z,95.63
2024-02-02T08:38:10.259Z,101.25
2024-02-02T08:39:10.172Z,101.25
2024-02-02T08:40:10.113Z,101.25
2024-02-02T08:41:10.107Z,101.25
2024-02-02T08:42:10.077Z,112.50
2024-02-02T08:43:10.048Z,118.13
2024-02-02T08:44:10.032Z,118.13
2024-02-02T08:45:10.032Z,112.50
2024-02-02T08:46:10.057Z,106.88
2024-02-02T08:47:10.000Z,106.88
2024-02-02T08:48:09.979Z,112.50
2024-02-02T08:49:09.969Z,123.75
2024-02-02T08:50:09.893Z,129.38
2024-02-02T08:51:09.895Z,135.00
2024-02-02T08:52:09.828Z,140.63
2024-02-02T08:53:09.923Z,140.63
2024-02-02T08:54:09.841Z,140.63
2024-02-02T08:55:09.760Z,140.63
2024-02-02T08:56:09.767Z,140.63
2024-02-02T08:57:09.775Z,140.63
2024-02-02T08:58:09.733Z,135.00
2024-02-02T08:59:09.653Z,129.38
2024-02-02T09:00:09.670Z,123.75
2024-02-02T09:01:09.633Z,129.38
2024-02-02T09:02:09.605Z,135.00
2024-02-02T09:03:09.633Z,140.63
2024-02-02T09:04:09.736Z,146.25
2024-02-02T09:05:09.542Z,157.50
2024-02-02T09:06:09.584Z,168.75
2024-02-02T09:07:09.548Z,180.00
2024-02-02T09:08:09.444Z,174.38
2024-02-02T09:09:09.526Z,151.88
2024-02-02T09:10:09.511Z,135.00
2024-02-02T09:11:09.376Z,118.13
2024-02-02T09:12:09.422Z,95.63
2024-02-02T09:13:09.337Z,84.38
2024-02-02T09:14:09.366Z,84.38
2024-02-02T09:15:09.301Z,90.00
2024-02-02T09:16:09.267Z,112.50
2024-02-02T09:17:09.227Z,163.13
2024-02-02T09:18:10.083Z,208.13
2024-02-02T09:19:09.285Z,230.63
2024-02-02T09:20:09.232Z,247.50
2024-02-02T09:21:09.209Z,264.38
2024-02-02T09:22:09.110Z,264.38
2024-02-02T09:23:09.108Z,275.63
2024-02-02T09:24:09.092Z,281.25
2024-02-02T09:25:10.054Z,292.50
2024-02-02T09:26:09.078Z,303.75
2024-02-02T09:27:09.028Z,303.75
2024-02-02T09:28:08.984Z,309.38
2024-02-02T09:29:08.947Z,303.75
2024-02-02T09:30:08.961Z,309.38
2024-02-02T09:31:08.929Z,298.13
2024-02-02T09:32:08.900Z,298.13
2024-02-02T09:33:08.923Z,331.88
2024-02-02T09:34:08.973Z,326.25
2024-02-02T09:35:08.805Z,331.88
2024-02-02T09:36:08.804Z,326.25
2024-02-02T09:37:08.761Z,326.25
2024-02-02T09:38:08.731Z,365.63
2024-02-02T09:39:08.782Z,309.38
2024-02-02T09:40:08.715Z,292.50
2024-02-02T09:41:08.726Z,270.00
2024-02-02T09:42:08.727Z,275.63
2024-02-02T09:43:08.620Z,253.13
2024-02-02T09:44:08.595Z,286.88
2024-02-02T09:45:08.602Z,315.00
2024-02-02T09:46:08.560Z,315.00
2024-02-02T09:47:08.712Z,337.50
2024-02-02T09:48:08.701Z,360.00
2024-02-02T09:49:08.590Z,405.00
2024-02-02T09:50:08.594Z,421.88
2024-02-02T09:51:08.471Z,455.63
2024-02-02T09:52:08.467Z,450.00
2024-02-02T09:53:08.397Z,466.88
2024-02-02T09:54:08.383Z,438.75
2024-02-02T09:55:08.429Z,450.00
2024-02-02T09:56:08.371Z,444.38
2024-02-02T09:57:08.347Z,433.13
2024-02-02T09:58:08.290Z,388.13
2024-02-02T09:59:08.263Z,427.50
2024-02-02T10:00:08.254Z,376.88
2024-02-02T10:01:08.248Z,337.50
2024-02-02T10:02:08.194Z,354.38
2024-02-02T10:03:09.169Z,320.63
2024-02-02T10:04:09.898Z,343.13
2024-02-02T10:05:09.139Z,393.75
2024-02-02T10:06:08.297Z,410.63
2024-02-02T10:07:08.140Z,388.13
2024-02-02T10:08:08.077Z,433.13
2024-02-02T10:09:08.098Z,444.38
2024-02-02T10:10:08.034Z,461.25
2024-02-02T10:11:07.993Z,478.13
2024-02-02T10:12:08.013Z,461.25
2024-02-02T10:13:08.558Z,455.63
2024-02-02T10:14:07.940Z,500.63
2024-02-02T10:15:07.914Z,489.38
2024-02-02T10:16:07.889Z,444.38
2024-02-02T10:17:07.880Z,421.88
2024-02-02T10:18:08.001Z,382.50
2024-02-02T10:19:08.034Z,444.38
2024-02-02T10:20:07.800Z,450.00
2024-02-02T10:21:08.163Z,427.50
2024-02-02T10:22:07.754Z,410.63
2024-02-02T10:23:07.741Z,393.75
2024-02-02T10:24:12.223Z,393.75
2024-02-02T10:25:07.710Z,399.38
2024-02-02T10:26:07.668Z,405.00
2024-02-02T10:27:07.724Z,466.88
2024-02-02T10:28:07.645Z,506.25
2024-02-02T10:29:07.614Z,551.25
2024-02-02T10:30:07.597Z,545.63
2024-02-02T10:31:07.576Z,601.88
2024-02-02T10:32:07.532Z,540.00
2024-02-02T10:33:07.723Z,551.25
2024-02-02T10:34:07.528Z,601.88
2024-02-02T10:35:07.580Z,590.63
2024-02-02T10:36:07.507Z,511.88
2024-02-02T10:37:07.479Z,444.38
2024-02-02T10:38:08.057Z,399.38
2024-02-02T10:39:08.351Z,376.88
2024-02-02T10:40:07.372Z,382.50
2024-02-02T10:41:07.359Z,399.38
2024-02-02T10:42:07.352Z,410.63
2024-02-02T10:43:07.342Z,405.00
2024-02-02T10:44:07.289Z,405.00
2024-02-02T10:45:07.286Z,421.88
2024-02-02T10:46:07.242Z,421.88
2024-02-02T10:47:07.255Z,433.13
2024-02-02T10:48:07.299Z,450.00
2024-02-02T10:49:07.283Z,450.00
2024-02-02T10:50:07.244Z,461.25
2024-02-02T10:51:07.180Z,472.50
2024-02-02T10:52:07.136Z,478.13
2024-02-02T10:53:07.129Z,489.38
2024-02-02T10:54:07.117Z,489.38
2024-02-02T10:55:07.045Z,511.88
2024-02-02T10:56:07.042Z,523.13
2024-02-02T10:57:07.109Z,540.00
2024-02-02T10:58:06.989Z,528.75
2024-02-02T10:59:06.980Z,500.63
2024-02-02T11:00:06.954Z,483.75
2024-02-02T11:01:07.051Z,478.13
2024-02-02T11:02:06.898Z,483.75
2024-02-02T11:03:06.962Z,495.00
2024-02-02T11:04:07.001Z,483.75
2024-02-02T11:05:06.853Z,483.75
2024-02-02T11:06:06.869Z,483.75
2024-02-02T11:07:06.978Z,534.38
2024-02-02T11:08:06.753Z,500.63
2024-02-02T11:09:06.786Z,528.75
2024-02-02T11:10:06.701Z,523.13
2024-02-02T11:11:06.706Z,534.38
2024-02-02T11:12:06.758Z,511.88
2024-02-02T11:13:06.674Z,511.88
2024-02-02T11:14:06.635Z,511.88
2024-02-02T11:15:06.622Z,506.25
2024-02-02T11:16:06.589Z,511.88
2024-02-02T11:17:06.571Z,540.00
2024-02-02T11:18:06.710Z,506.25
2024-02-02T11:19:06.593Z,500.63
2024-02-02T11:20:06.549Z,506.25
2024-02-02T11:21:07.111Z,545.63
2024-02-02T11:22:06.459Z,556.88
2024-02-02T11:23:06.430Z,545.63
2024-02-02T11:24:06.439Z,562.50
2024-02-02T11:25:06.439Z,573.75
2024-02-02T11:26:06.498Z,562.50
2024-02-02T11:27:06.373Z,562.50
2024-02-02T11:28:07.085Z,562.50
2024-02-02T11:29:06.333Z,573.75
2024-02-02T11:30:06.280Z,573.75
2024-02-02T11:31:06.270Z,590.63
2024-02-02T11:32:07.122Z,590.63
2024-02-02T11:33:06.317Z,573.75
2024-02-02T11:34:06.252Z,596.25
2024-02-02T11:35:06.194Z,568.13
2024-02-02T11:36:06.276Z,562.50
2024-02-02T11:37:06.141Z,562.50
2024-02-02T11:38:06.103Z,556.88
2024-02-02T11:39:06.094Z,556.88
2024-02-02T11:40:06.076Z,585.00
2024-02-02T11:41:06.048Z,568.13
2024-02-02T11:42:06.038Z,573.75
2024-02-02T11:43:06.033Z,573.75
2024-02-02T11:44:06.004Z,545.63
2024-02-02T11:45:06.009Z,534.38
2024-02-02T11:46:08.596Z,540.00
2024-02-02T11:47:05.939Z,579.38
2024-02-02T11:48:06.020Z,601.88
2024-02-02T11:49:05.930Z,568.13
2024-02-02T11:50:06.094Z,562.50
2024-02-02T11:51:05.959Z,573.75
2024-02-02T11:52:05.851Z,573.75
2024-02-02T11:53:05.827Z,585.00
2024-02-02T11:54:05.810Z,573.75
2024-02-02T11:55:05.762Z,562.50
2024-02-02T11:56:05.838Z,568.13
2024-02-02T11:57:05.734Z,573.75
2024-02-02T11:58:05.869Z,568.13
2024-02-02T11:59:05.686Z,573.75
2024-02-02T12:00:05.682Z,618.75
2024-02-02T12:01:05.666Z,635.63
2024-02-02T12:02:05.609Z,675.00
2024-02-02T12:03:05.631Z,652.50
2024-02-02T12:04:05.605Z,635.63
2024-02-02T12:05:05.582Z,630.00
2024-02-02T12:06:05.675Z,613.13
2024-02-02T12:07:06.192Z,585.00
2024-02-02T12:08:05.522Z,579.38
2024-02-02T12:09:05.595Z,585.00
2024-02-02T12:10:05.490Z,579.38
2024-02-02T12:11:05.455Z,585.00
2024-02-02T12:12:05.456Z,573.75
2024-02-02T12:13:05.451Z,596.25
2024-02-02T12:14:05.370Z,590.63
2024-02-02T12:15:05.368Z,562.50
2024-02-02T12:16:05.350Z,562.50
2024-02-02T12:17:05.308Z,568.13
2024-02-02T12:18:05.423Z,556.88
2024-02-02T12:19:05.437Z,551.25
2024-02-02T12:20:05.350Z,562.50
2024-02-02T12:21:05.295Z,528.75
2024-02-02T12:22:05.193Z,517.50
2024-02-02T12:23:05.196Z,545.63
2024-02-02T12:24:05.201Z,551.25
2024-02-02T12:25:05.142Z,517.50
2024-02-02T12:26:05.124Z,506.25
2024-02-02T12:27:05.212Z,511.88
2024-02-02T12:28:05.080Z,511.88
2024-02-02T12:29:05.066Z,489.38
2024-02-02T12:30:05.157Z,511.88
2024-02-02T12:31:05.012Z,534.38
2024-02-02T12:32:05.023Z,511.88
2024-02-02T12:33:05.120Z,506.25
2024-02-02T12:34:05.055Z,506.25
2024-02-02T12:35:05.139Z,500.63
2024-02-02T12:36:09.932Z,528.75
2024-02-02T12:37:04.950Z,528.75
2024-02-02T12:38:04.868Z,523.13
2024-02-02T12:39:04.863Z,540.00
2024-02-02T12:40:04.841Z,551.25
2024-02-02T12:41:04.811Z,540.00
2024-02-02T12:42:06.514Z,551.25
2024-02-02T12:43:04.768Z,556.88
2024-02-02T12:44:04.768Z,556.88
2024-02-02T12:45:05.511Z,556.88
2024-02-02T12:46:04.705Z,596.25
2024-02-02T12:47:04.694Z,585.00
2024-02-02T12:48:04.848Z,579.38
2024-02-02T12:49:04.739Z,630.00
2024-02-02T12:50:04.765Z,686.25
2024-02-02T12:51:04.626Z,691.88
2024-02-02T12:52:04.586Z,630.00
2024-02-02T12:53:04.553Z,551.25
2024-02-02T12:54:04.576Z,517.50
2024-02-02T12:55:04.519Z,495.00
2024-02-02T12:56:04.510Z,534.38
2024-02-02T12:57:04.502Z,517.50